createdAt,value
2018-12-18T00:00:00.815Z,101543.53
2018-12-18T00:01:03.757Z,101541.42
2018-12-18T00:02:08.204Z,101543.46
2018-12-18T00:03:10.674Z,101525.22
2018-12-18T00:04:13.154Z,101537.25
2018-12-18T00:05:21.348Z,101534.81
2018-12-18T00:06:23.830Z,101538.97
2018-12-18T00:07:26.393Z,101540.59
2018-12-18T00:08:28.878Z,101537.58
2018-12-18T00:09:31.368Z,101533.95
2018-12-18T00:10:39.458Z,101539.39
2018-12-18T00:11:41.943Z,101537.36
2018-12-18T00:12:44.438Z,101543.13
2018-12-18T00:13:46.931Z,101540.52
2018-12-18T00:14:49.411Z,101537.75
2018-12-18T00:15:51.907Z,101535.80
2018-12-18T00:16:54.397Z,101536.47
2018-12-18T00:17:56.880Z,101541.43
2018-12-18T00:18:59.354Z,101538.57
2018-12-18T00:20:01.836Z,101531.17
2018-12-18T00:21:04.320Z,101531.50
2018-12-18T00:22:07.041Z,101527.10
2018-12-18T00:23:09.532Z,101526.92
2018-12-18T00:24:12.027Z,101529.20
2018-12-18T00:25:14.506Z,101527.09
2018-12-18T00:26:17.104Z,101519.69
2018-12-18T00:27:19.578Z,101525.80
2018-12-18T00:28:22.086Z,101528.56
2018-12-18T00:29:24.554Z,101526.37
2018-12-18T00:30:27.003Z,101516.58
2018-12-18T00:31:29.532Z,101525.71
2018-12-18T00:32:32.015Z,101535.40
2018-12-18T00:33:34.509Z,101532.78
2018-12-18T00:34:36.972Z,101531.08
2018-12-18T00:35:39.439Z,101537.99
2018-12-18T00:36:41.928Z,101536.70
2018-12-18T00:37:44.428Z,101530.27
2018-12-18T00:38:46.918Z,101532.13
2018-12-18T00:39:49.381Z,101531.65
2018-12-18T00:40:51.905Z,101529.84
2018-12-18T00:41:56.369Z,101528.31
2018-12-18T00:42:58.856Z,101535.32
2018-12-18T00:44:01.347Z,101529.54
2018-12-18T00:45:04.550Z,101532.37
2018-12-18T00:46:07.020Z,101531.55
2018-12-18T00:47:09.486Z,101532.22
2018-12-18T00:48:11.958Z,101527.34
2018-12-18T00:49:14.458Z,101532.14
2018-12-18T00:50:16.919Z,101531.34
2018-12-18T00:51:19.447Z,101526.94
2018-12-18T00:52:21.918Z,101530.77
2018-12-18T00:53:24.384Z,101528.08
2018-12-18T00:54:26.874Z,101524.33
2018-12-18T00:55:29.367Z,101527.09
2018-12-18T00:56:31.857Z,101531.08
2018-12-18T00:57:34.328Z,101531.88
2018-12-18T00:58:36.803Z,101530.17
2018-12-18T00:59:39.337Z,101533.03
2018-12-18T01:00:41.815Z,101522.86
2018-12-18T01:01:46.278Z,101524.97
2018-12-18T01:02:48.750Z,101521.54
2018-12-18T01:03:52.969Z,101516.33
2018-12-18T01:04:55.766Z,101517.63
2018-12-18T01:05:58.267Z,101516.91
2018-12-18T01:07:00.738Z,101517.39
2018-12-18T01:08:03.205Z,101515.28
2018-12-18T01:09:06.428Z,101518.63
2018-12-18T01:10:09.094Z,101521.15
2018-12-18T01:11:11.551Z,101512.93
2018-12-18T01:12:14.012Z,101512.93
2018-12-18T01:13:16.491Z,101510.88
2018-12-18T01:14:19.611Z,101515.45
2018-12-18T01:15:22.110Z,101509.26
2018-12-18T01:16:24.586Z,101506.01
2018-12-18T01:17:27.110Z,101506.82
2018-12-18T01:18:29.677Z,101509.98
2018-12-18T01:19:32.195Z,101506.40
2018-12-18T01:20:34.708Z,101509.41
2018-12-18T01:21:37.195Z,101511.03
2018-12-18T01:22:39.660Z,101508.18
2018-12-18T01:23:42.129Z,101511.67
2018-12-18T01:24:44.624Z,101511.19
2018-12-18T01:25:47.122Z,101509.17
2018-12-18T01:26:49.579Z,101506.07
2018-12-18T01:27:52.050Z,101507.03
2018-12-18T01:28:54.534Z,101506.22
2018-12-18T01:29:57.028Z,101507.94
2018-12-18T01:30:59.544Z,101507.13
2018-12-18T01:32:02.023Z,101508.12
2018-12-18T01:33:04.523Z,101510.16
2018-12-18T01:34:07.030Z,101506.64
2018-12-18T01:35:09.529Z,101505.83
2018-12-18T01:36:12.061Z,101512.59
2018-12-18T01:37:14.524Z,101509.50
2018-12-18T01:38:17.003Z,101506.39
2018-12-18T01:39:19.478Z,101508.02
2018-12-18T01:40:22.027Z,101509.26
2018-12-18T01:41:24.654Z,101510.31
2018-12-18T01:42:27.131Z,101506.64
2018-12-18T01:43:29.625Z,101506.31
2018-12-18T01:44:32.076Z,101503.55
2018-12-18T01:45:34.605Z,101504.92
2018-12-18T01:46:37.217Z,101513.05
2018-12-18T01:47:39.695Z,101508.09
2018-12-18T01:48:42.167Z,101508.09
2018-12-18T01:49:44.651Z,101514.20
2018-12-18T01:50:47.125Z,101509.98
2018-12-18T01:51:49.620Z,101518.59
2018-12-18T01:52:52.121Z,101514.62
2018-12-18T01:53:54.602Z,101510.80
2018-12-18T01:54:57.086Z,101512.27
2018-12-18T01:55:59.540Z,101516.18
2018-12-18T01:57:02.016Z,101516.18
2018-12-18T01:58:04.576Z,101509.65
2018-12-18T01:59:07.043Z,101511.45
2018-12-18T02:00:09.582Z,101510.31
2018-12-18T02:01:12.043Z,101515.28
2018-12-18T02:02:14.531Z,101515.52
2018-12-18T02:03:17.020Z,101510.13
2018-12-18T02:04:19.494Z,101514.86
2018-12-18T02:05:21.952Z,101519.16
2018-12-18T02:06:24.440Z,101505.31
2018-12-18T02:07:26.945Z,101511.03
2018-12-18T02:08:29.438Z,101508.03
2018-12-18T02:09:33.274Z,101515.25
2018-12-18T02:10:37.737Z,101514.71
2018-12-18T02:11:40.225Z,101513.80
2018-12-18T02:12:42.733Z,101508.75
2018-12-18T02:13:45.210Z,101506.55
2018-12-18T02:14:47.687Z,101506.22
2018-12-18T02:15:50.160Z,101493.55
2018-12-18T02:16:52.632Z,101500.14
2018-12-18T02:17:55.147Z,101503.97
2018-12-18T02:18:57.650Z,101513.41
2018-12-18T02:20:00.198Z,101507.39
2018-12-18T02:21:02.700Z,101507.16
2018-12-18T02:22:05.270Z,101509.34
2018-12-18T02:23:07.809Z,101495.89
2018-12-18T02:24:10.308Z,101515.61
2018-12-18T02:25:12.867Z,101511.37
2018-12-18T02:26:15.358Z,101514.14
2018-12-18T02:27:17.823Z,101510.95
2018-12-18T02:28:20.334Z,101516.73
2018-12-18T02:29:22.822Z,101518.11
2018-12-18T02:30:25.297Z,101512.09
2018-12-18T02:31:27.785Z,101518.11
2018-12-18T02:32:30.278Z,101516.64
2018-12-18T02:33:32.779Z,101525.84
2018-12-18T02:34:35.390Z,101515.01
2018-12-18T02:35:37.863Z,101517.78
2018-12-18T02:36:40.349Z,101505.83
2018-12-18T02:37:42.830Z,101515.58
2018-12-18T02:38:45.342Z,101512.42
2018-12-18T02:39:47.850Z,101514.14
2018-12-18T02:40:50.327Z,101517.33
2018-12-18T02:41:52.802Z,101511.55
2018-12-18T02:42:55.274Z,101516.84
2018-12-18T02:43:57.783Z,101513.65
2018-12-18T02:45:00.327Z,101519.03
2018-12-18T02:46:02.800Z,101522.45
2018-12-18T02:47:05.260Z,101516.34
2018-12-18T02:48:07.731Z,101520.73
2018-12-18T02:49:10.241Z,101523.02
2018-12-18T02:50:12.709Z,101530.84
2018-12-18T02:51:15.188Z,101525.95
2018-12-18T02:52:17.701Z,101530.44
2018-12-18T02:53:20.198Z,101530.77
2018-12-18T02:54:22.692Z,101534.97
2018-12-18T02:55:25.180Z,101530.91
2018-12-18T02:56:27.644Z,101523.98
2018-12-18T02:57:30.138Z,101519.59
2018-12-18T02:58:32.637Z,101520.41
2018-12-18T02:59:35.142Z,101516.74
2018-12-18T03:00:37.599Z,101519.13
2018-12-18T03:01:40.115Z,101525.95
2018-12-18T03:02:42.611Z,101519.28
2018-12-18T03:03:45.092Z,101520.73
2018-12-18T03:04:47.609Z,101513.57
2018-12-18T03:05:50.091Z,101520.02
2018-12-18T03:06:52.569Z,101520.75
2018-12-18T03:07:55.162Z,101518.85
2018-12-18T03:08:57.621Z,101511.45
2018-12-18T03:10:00.120Z,101515.37
2018-12-18T03:11:02.581Z,101502.24
2018-12-18T03:12:05.038Z,101503.39
2018-12-18T03:13:07.507Z,101503.57
2018-12-18T03:14:09.991Z,101509.92
2018-12-18T03:15:12.502Z,101510.22
2018-12-18T03:16:15.205Z,101503.48
2018-12-18T03:17:17.669Z,101519.34
2018-12-18T03:18:20.144Z,101516.42
2018-12-18T03:19:22.615Z,101510.73
2018-12-18T03:20:25.160Z,101517.41
2018-12-18T03:21:27.689Z,101507.48
2018-12-18T03:22:30.179Z,101502.66
2018-12-18T03:23:32.716Z,101500.41
2018-12-18T03:24:35.246Z,101509.34
2018-12-18T03:25:37.736Z,101499.80
2018-12-18T03:26:40.232Z,101480.22
2018-12-18T03:27:42.704Z,101493.22
2018-12-18T03:28:45.182Z,101496.31
2018-12-18T03:29:47.678Z,101491.27
2018-12-18T03:30:50.191Z,101485.30
2018-12-18T03:31:52.855Z,101489.12
2018-12-18T03:32:55.638Z,101488.22
2018-12-18T03:33:58.241Z,101485.30
2018-12-18T03:35:00.718Z,101489.12
2018-12-18T03:36:03.253Z,101490.27
2018-12-18T03:37:05.758Z,101479.62
2018-12-18T03:38:08.234Z,101491.27
2018-12-18T03:39:10.691Z,101496.47
2018-12-18T03:40:14.257Z,101498.76
2018-12-18T03:41:16.847Z,101493.88
2018-12-18T03:42:19.409Z,101499.00
2018-12-18T03:43:21.894Z,101502.09
2018-12-18T03:44:24.372Z,101499.57
2018-12-18T03:45:26.850Z,101502.09
2018-12-18T03:46:29.351Z,101498.19
2018-12-18T03:47:31.836Z,101499.09
2018-12-18T03:48:34.350Z,101496.65
2018-12-18T03:49:36.842Z,101499.15
2018-12-18T03:50:39.309Z,101493.12
2018-12-18T03:51:41.814Z,101499.80
2018-12-18T03:52:44.293Z,101501.04
2018-12-18T03:53:46.777Z,101493.88
2018-12-18T03:54:49.246Z,101497.64
2018-12-18T03:55:51.751Z,101506.33
2018-12-18T03:56:54.247Z,101500.88
2018-12-18T03:57:56.736Z,101500.96
2018-12-18T03:58:59.200Z,101499.42
2018-12-18T04:00:01.675Z,101499.42
2018-12-18T04:01:04.136Z,101489.07
2018-12-18T04:02:06.639Z,101502.04
2018-12-18T04:03:09.099Z,101499.84
2018-12-18T04:04:11.566Z,101496.23
2018-12-18T04:05:14.069Z,101504.48
2018-12-18T04:06:16.551Z,101506.67
2018-12-18T04:07:19.049Z,101496.09
2018-12-18T04:08:21.526Z,101500.72
2018-12-18T04:09:24.004Z,101506.59
2018-12-18T04:10:26.467Z,101508.54
2018-12-18T04:11:28.923Z,101499.52
2018-12-18T04:12:31.437Z,101507.48
2018-12-18T04:13:33.910Z,101504.96
2018-12-18T04:14:37.124Z,101497.07
2018-12-18T04:15:39.605Z,101498.19
2018-12-18T04:16:42.073Z,101492.73
2018-12-18T04:17:44.549Z,101490.87
2018-12-18T04:18:47.021Z,101487.86
2018-12-18T04:19:49.500Z,101485.18
2018-12-18T04:20:51.958Z,101480.13
2018-12-18T04:21:54.436Z,101492.91
2018-12-18T04:22:56.931Z,101486.47
2018-12-18T04:23:59.484Z,101482.89
2018-12-18T04:25:01.954Z,101492.34
2018-12-18T04:26:04.449Z,101480.05
2018-12-18T04:27:06.943Z,101483.38
2018-12-18T04:28:09.425Z,101481.09
2018-12-18T04:29:11.920Z,101475.56
2018-12-18T04:30:14.480Z,101475.23
2018-12-18T04:31:16.936Z,101472.17
2018-12-18T04:32:19.408Z,101471.89
2018-12-18T04:33:21.898Z,101468.89
2018-12-18T04:34:24.385Z,101465.88
2018-12-18T04:35:26.903Z,101467.59
2018-12-18T04:36:29.389Z,101462.38
2018-12-18T04:37:31.877Z,101468.73
2018-12-18T04:38:34.389Z,101460.28
2018-12-18T04:39:36.866Z,101460.94
2018-12-18T04:40:39.448Z,101462.64
2018-12-18T04:41:41.930Z,101461.56
2018-12-18T04:42:44.398Z,101460.69
2018-12-18T04:43:46.898Z,101455.55
2018-12-18T04:44:49.383Z,101466.95
2018-12-18T04:45:51.851Z,101458.66
2018-12-18T04:46:54.361Z,101456.37
2018-12-18T04:47:56.828Z,101456.61
2018-12-18T04:48:59.336Z,101454.08
2018-12-18T04:50:01.850Z,101452.05
2018-12-18T04:51:04.330Z,101453.52
2018-12-18T04:52:06.814Z,101447.41
2018-12-18T04:53:09.272Z,101451.56
2018-12-18T04:54:11.779Z,101442.30
2018-12-18T04:55:14.277Z,101453.03
2018-12-18T04:56:16.777Z,101449.45
2018-12-18T04:57:19.265Z,101441.56
2018-12-18T04:58:21.731Z,101448.48
2018-12-18T04:59:24.203Z,101442.20
2018-12-18T05:00:27.148Z,101449.44
2018-12-18T05:01:29.607Z,101434.97
2018-12-18T05:02:32.090Z,101450.09
2018-12-18T05:03:34.559Z,101438.70
2018-12-18T05:04:37.074Z,101452.30
2018-12-18T05:05:39.609Z,101446.52
2018-12-18T05:06:42.094Z,101443.99
2018-12-18T05:07:44.574Z,101444.42
2018-12-18T05:08:47.051Z,101445.80
2018-12-18T05:09:49.545Z,101451.82
2018-12-18T05:10:52.038Z,101452.30
2018-12-18T05:11:54.576Z,101447.25
2018-12-18T05:12:57.057Z,101447.59
2018-12-18T05:13:59.557Z,101445.39
2018-12-18T05:15:02.081Z,101445.96
2018-12-18T05:16:04.581Z,101456.78
2018-12-18T05:17:07.071Z,101461.02
2018-12-18T05:18:09.570Z,101457.17
2018-12-18T05:19:12.054Z,101455.06
2018-12-18T05:20:14.539Z,101451.48
2018-12-18T05:21:17.023Z,101457.58
2018-12-18T05:22:19.514Z,101459.63
2018-12-18T05:23:21.990Z,101460.73
2018-12-18T05:24:24.517Z,101457.97
2018-12-18T05:25:27.008Z,101456.05
2018-12-18T05:26:29.488Z,101452.38
2018-12-18T05:27:31.964Z,101457.58
2018-12-18T05:28:34.428Z,101456.20
2018-12-18T05:29:36.883Z,101455.88
2018-12-18T05:30:39.364Z,101447.90
2018-12-18T05:31:41.854Z,101456.92
2018-12-18T05:32:44.328Z,101450.42
2018-12-18T05:33:46.810Z,101453.92
2018-12-18T05:34:49.356Z,101451.16
2018-12-18T05:35:51.873Z,101451.16
2018-12-18T05:36:54.369Z,101437.98
2018-12-18T05:37:56.845Z,101450.82
2018-12-18T05:38:59.506Z,101452.30
2018-12-18T05:40:02.061Z,101452.30
2018-12-18T05:41:04.614Z,101452.62
2018-12-18T05:42:07.107Z,101447.66
2018-12-18T05:43:09.572Z,101451.32
2018-12-18T05:44:12.066Z,101457.23
2018-12-18T05:45:14.557Z,101448.27
2018-12-18T05:46:17.046Z,101460.33
2018-12-18T05:47:19.508Z,101458.95
2018-12-18T05:48:21.965Z,101463.25
2018-12-18T05:49:24.453Z,101458.48
2018-12-18T05:50:27.380Z,101451.14
2018-12-18T05:51:29.878Z,101457.83
2018-12-18T05:52:32.364Z,101462.22
2018-12-18T05:53:34.842Z,101458.97
2018-12-18T05:54:37.341Z,101457.09
2018-12-18T05:55:39.819Z,101461.73
2018-12-18T05:56:42.325Z,101463.36
2018-12-18T05:57:44.779Z,101461.97
2018-12-18T05:58:47.319Z,101459.11
2018-12-18T05:59:49.816Z,101466.45
2018-12-18T06:00:52.307Z,101466.21
2018-12-18T06:01:54.806Z,101458.14
2018-12-18T06:02:57.302Z,101458.76
2018-12-18T06:03:59.780Z,101463.67
2018-12-18T06:05:03.332Z,101466.11
2018-12-18T06:06:06.198Z,101460.00
2018-12-18T06:07:08.702Z,101455.66
2018-12-18T06:08:11.166Z,101460.91
2018-12-18T06:09:13.666Z,101461.77
2018-12-18T06:10:16.164Z,101465.05
2018-12-18T06:11:18.650Z,101469.69
2018-12-18T06:12:21.726Z,101467.16
2018-12-18T06:13:24.183Z,101462.62
2018-12-18T06:14:26.649Z,101464.83
2018-12-18T06:15:29.163Z,101460.11
2018-12-18T06:16:31.758Z,101460.92
2018-12-18T06:17:34.277Z,101460.34
2018-12-18T06:18:36.776Z,101461.48
2018-12-18T06:19:39.305Z,101460.19
2018-12-18T06:20:41.785Z,101453.00
2018-12-18T06:21:44.250Z,101457.23
2018-12-18T06:22:46.751Z,101458.38
2018-12-18T06:23:49.238Z,101461.44
2018-12-18T06:24:51.703Z,101459.00
2018-12-18T06:25:54.174Z,101466.00
2018-12-18T06:26:56.650Z,101461.04
2018-12-18T06:27:59.141Z,101460.06
2018-12-18T06:29:01.608Z,101462.50
2018-12-18T06:30:04.926Z,101461.04
2018-12-18T06:31:07.387Z,101460.63
2018-12-18T06:32:09.867Z,101462.52
2018-12-18T06:33:12.505Z,101463.58
2018-12-18T06:34:14.982Z,101467.16
2018-12-18T06:35:17.468Z,101464.39
2018-12-18T06:36:20.023Z,101469.44
2018-12-18T06:37:22.662Z,101466.44
2018-12-18T06:38:25.238Z,101472.45
2018-12-18T06:39:27.742Z,101472.78
2018-12-18T06:40:30.333Z,101465.34
2018-12-18T06:41:32.815Z,101459.41
2018-12-18T06:42:35.280Z,101468.44
2018-12-18T06:43:37.792Z,101467.47
2018-12-18T06:44:40.319Z,101467.22
2018-12-18T06:45:42.803Z,101463.97
2018-12-18T06:46:45.308Z,101464.87
2018-12-18T06:47:47.830Z,101466.88
2018-12-18T06:48:50.424Z,101466.38
2018-12-18T06:49:52.933Z,101468.66
2018-12-18T06:50:55.419Z,101464.68
2018-12-18T06:51:57.891Z,101459.12
2018-12-18T06:53:00.397Z,101449.52
2018-12-18T06:54:02.903Z,101457.37
2018-12-18T06:55:05.402Z,101464.52
2018-12-18T06:56:07.882Z,101460.58
2018-12-18T06:57:10.341Z,101463.87
2018-12-18T06:58:12.826Z,101464.31
2018-12-18T06:59:15.307Z,101464.05
2018-12-18T07:00:17.790Z,101460.91
2018-12-18T07:01:20.274Z,101458.91
2018-12-18T07:02:22.735Z,101462.95
2018-12-18T07:03:25.225Z,101456.27
2018-12-18T07:04:27.715Z,101456.59
2018-12-18T07:05:30.213Z,101453.77
2018-12-18T07:06:32.713Z,101458.92
2018-12-18T07:07:35.188Z,101450.30
2018-12-18T07:08:37.666Z,101453.87
2018-12-18T07:09:40.177Z,101451.42
2018-12-18T07:10:42.663Z,101451.24
2018-12-18T07:11:45.134Z,101452.05
2018-12-18T07:12:47.629Z,101452.69
2018-12-18T07:13:50.095Z,101451.56
2018-12-18T07:14:52.606Z,101446.89
2018-12-18T07:15:55.072Z,101450.75
2018-12-18T07:16:57.619Z,101443.03
2018-12-18T07:18:00.094Z,101447.17
2018-12-18T07:19:02.556Z,101446.64
2018-12-18T07:20:05.295Z,101441.83
2018-12-18T07:21:07.751Z,101438.50
2018-12-18T07:22:10.211Z,101444.41
2018-12-18T07:23:12.678Z,101443.78
2018-12-18T07:24:15.204Z,101442.27
2018-12-18T07:25:17.702Z,101441.02
2018-12-18T07:26:20.178Z,101441.23
2018-12-18T07:27:22.651Z,101434.27
2018-12-18T07:28:25.131Z,101429.98
2018-12-18T07:29:27.663Z,101430.98
2018-12-18T07:30:30.230Z,101432.24
2018-12-18T07:31:32.707Z,101424.06
2018-12-18T07:32:35.175Z,101417.91
2018-12-18T07:33:37.671Z,101415.84
2018-12-18T07:34:40.154Z,101416.75
2018-12-18T07:35:42.661Z,101411.59
2018-12-18T07:36:45.128Z,101406.81
2018-12-18T07:37:47.598Z,101400.00
2018-12-18T07:38:50.078Z,101397.11
2018-12-18T07:39:52.554Z,101396.47
2018-12-18T07:40:55.055Z,101398.02
2018-12-18T07:41:57.542Z,101402.41
2018-12-18T07:43:00.046Z,101395.17
2018-12-18T07:44:02.517Z,101401.52
2018-12-18T07:45:05.261Z,101397.61
2018-12-18T07:46:07.755Z,101397.32
2018-12-18T07:47:10.227Z,101403.09
2018-12-18T07:48:12.749Z,101400.08
2018-12-18T07:49:15.238Z,101393.88
2018-12-18T07:50:17.733Z,101397.86
2018-12-18T07:51:20.230Z,101393.55
2018-12-18T07:52:22.695Z,101393.30
2018-12-18T07:53:25.174Z,101395.42
2018-12-18T07:54:27.651Z,101394.85
2018-12-18T07:55:30.123Z,101394.51
2018-12-18T07:56:32.633Z,101392.56
2018-12-18T07:57:35.103Z,101387.44
2018-12-18T07:58:37.597Z,101389.64
2018-12-18T07:59:40.074Z,101387.84
2018-12-18T08:00:42.556Z,101384.19
2018-12-18T08:01:45.222Z,101380.89
2018-12-18T08:02:47.701Z,101386.14
2018-12-18T08:03:50.172Z,101385.28
2018-12-18T08:04:52.700Z,101385.58
2018-12-18T08:05:55.175Z,101388.34
2018-12-18T08:06:57.684Z,101385.58
2018-12-18T08:08:00.152Z,101386.47
2018-12-18T08:09:02.989Z,101390.61
2018-12-18T08:10:07.006Z,101389.23
2018-12-18T08:11:09.470Z,101390.13
2018-12-18T08:12:11.963Z,101382.89
2018-12-18T08:13:14.424Z,101394.59
2018-12-18T08:14:16.888Z,101397.11
2018-12-18T08:15:19.384Z,101389.15
2018-12-18T08:16:21.841Z,101386.88
2018-12-18T08:17:24.332Z,101379.48
2018-12-18T08:18:26.821Z,101386.88
2018-12-18T08:19:29.321Z,101391.99
2018-12-18T08:20:31.779Z,101385.58
2018-12-18T08:21:34.269Z,101387.72
2018-12-18T08:22:36.827Z,101393.00
2018-12-18T08:23:39.306Z,101393.81
2018-12-18T08:24:41.826Z,101394.14
2018-12-18T08:25:44.302Z,101395.52
2018-12-18T08:26:46.782Z,101390.81
2018-12-18T08:27:49.300Z,101390.00
2018-12-18T08:28:51.764Z,101394.19
2018-12-18T08:29:54.238Z,101397.72
2018-12-18T08:30:56.708Z,101393.86
2018-12-18T08:31:59.219Z,101394.19
2018-12-18T08:33:01.810Z,101396.70
2018-12-18T08:34:04.275Z,101400.13
2018-12-18T08:35:06.818Z,101404.51
2018-12-18T08:36:09.306Z,101401.66
2018-12-18T08:37:11.778Z,101407.77
2018-12-18T08:38:14.280Z,101405.81
2018-12-18T08:39:16.749Z,101404.05
2018-12-18T08:40:19.204Z,101401.21
2018-12-18T08:41:21.685Z,101401.12
2018-12-18T08:42:24.167Z,101394.47
2018-12-18T08:43:26.675Z,101390.56
2018-12-18T08:44:29.203Z,101389.42
2018-12-18T08:45:31.782Z,101383.89
2018-12-18T08:46:34.254Z,101388.85
2018-12-18T08:47:36.739Z,101384.71
2018-12-18T08:48:39.242Z,101381.13
2018-12-18T08:49:41.704Z,101373.73
2018-12-18T08:50:44.184Z,101377.07
2018-12-18T08:51:46.719Z,101373.41
2018-12-18T08:52:49.200Z,101370.89
2018-12-18T08:53:51.698Z,101374.23
2018-12-18T08:54:54.185Z,101375.66
2018-12-18T08:55:56.662Z,101371.52
2018-12-18T08:56:59.150Z,101375.91
2018-12-18T08:58:01.637Z,101362.50
2018-12-18T08:59:04.212Z,101377.23
2018-12-18T09:00:08.217Z,101369.92
2018-12-18T09:01:10.698Z,101373.73
2018-12-18T09:02:13.194Z,101364.31
2018-12-18T09:03:15.696Z,101364.88
2018-12-18T09:04:18.179Z,101363.41
2018-12-18T09:05:20.651Z,101359.02
2018-12-18T09:06:23.134Z,101352.69
2018-12-18T09:07:25.685Z,101341.23
2018-12-18T09:08:28.189Z,101345.20
2018-12-18T09:09:30.680Z,101334.32
2018-12-18T09:10:39.646Z,101342.44
2018-12-18T09:11:37.646Z,101333.67
2018-12-18T09:12:40.141Z,101342.61
2018-12-18T09:13:42.641Z,101336.59
2018-12-18T09:14:47.081Z,101339.93
2018-12-18T09:15:55.620Z,101343.51
2018-12-18T09:17:02.554Z,101338.22
2018-12-18T09:18:05.035Z,101334.32
2018-12-18T09:19:07.538Z,101342.86
2018-12-18T09:20:10.288Z,101335.77
2018-12-18T09:21:12.785Z,101335.45
2018-12-18T09:22:15.267Z,101335.94
2018-12-18T09:23:17.746Z,101343.41
2018-12-18T09:24:20.237Z,101342.30
2018-12-18T09:25:22.719Z,101340.36
2018-12-18T09:26:25.197Z,101338.31
2018-12-18T09:27:27.661Z,101338.89
2018-12-18T09:28:30.153Z,101335.22
2018-12-18T09:29:33.123Z,101335.14
2018-12-18T09:30:39.598Z,101337.75
2018-12-18T09:31:40.084Z,101336.61
2018-12-18T09:32:42.541Z,101337.75
2018-12-18T09:33:45.029Z,101340.27
2018-12-18T09:34:47.533Z,101333.36
2018-12-18T09:35:50.048Z,101332.79
2018-12-18T09:36:52.624Z,101327.97
2018-12-18T09:38:00.697Z,101333.36
2018-12-18T09:39:10.689Z,101340.52
2018-12-18T09:40:13.181Z,101339.94
2018-12-18T09:41:33.457Z,101336.84
2018-12-18T09:42:41.638Z,101335.95
2018-12-18T09:43:49.756Z,101341.30
2018-12-18T09:44:52.250Z,101336.02
2018-12-18T09:45:54.743Z,101346.21
2018-12-18T09:46:57.241Z,101336.78
2018-12-18T09:47:59.705Z,101345.47
2018-12-18T09:49:02.182Z,101349.05
2018-12-18T09:50:05.790Z,101343.76
2018-12-18T09:51:08.345Z,101339.70
2018-12-18T09:52:10.840Z,101333.11
2018-12-18T09:53:13.337Z,101335.88
2018-12-18T09:54:15.837Z,101335.97
2018-12-18T09:55:18.391Z,101339.05
2018-12-18T09:56:20.878Z,101336.02
2018-12-18T09:57:29.071Z,101334.64
2018-12-18T09:58:31.547Z,101334.39
2018-12-18T09:59:34.014Z,101331.34
2018-12-18T10:00:36.525Z,101330.44
2018-12-18T10:01:39.029Z,101324.01
2018-12-18T10:02:41.501Z,101320.50
2018-12-18T10:03:43.988Z,101319.11
2018-12-18T10:04:46.496Z,101322.60
2018-12-18T10:05:49.035Z,101319.21
2018-12-18T10:06:51.974Z,101312.36
2018-12-18T10:07:54.459Z,101313.02
2018-12-18T10:08:56.916Z,101304.06
2018-12-18T10:09:59.372Z,101312.30
2018-12-18T10:11:01.871Z,101307.73
2018-12-18T10:12:04.806Z,101305.30
2018-12-18T10:13:07.567Z,101305.86
2018-12-18T10:14:10.041Z,101304.48
2018-12-18T10:15:12.958Z,101300.09
2018-12-18T10:16:15.892Z,101294.05
2018-12-18T10:17:18.419Z,101295.44
2018-12-18T10:18:20.919Z,101294.33
2018-12-18T10:19:23.413Z,101296.28
2018-12-18T10:20:25.881Z,101298.37
2018-12-18T10:21:28.459Z,101298.14
2018-12-18T10:22:30.942Z,101296.67
2018-12-18T10:23:33.399Z,101301.87
2018-12-18T10:24:35.894Z,101297.20
2018-12-18T10:25:38.372Z,101293.48
2018-12-18T10:26:40.861Z,101294.44
2018-12-18T10:27:43.414Z,101288.28
2018-12-18T10:28:45.890Z,101286.08
2018-12-18T10:29:48.385Z,101282.51
2018-12-18T10:30:50.856Z,101274.75
2018-12-18T10:31:53.340Z,101273.64
2018-12-18T10:32:55.892Z,101273.37
2018-12-18T10:33:58.383Z,101270.60
2018-12-18T10:35:00.851Z,101268.98
2018-12-18T10:36:03.348Z,101271.02
2018-12-18T10:37:05.859Z,101269.97
2018-12-18T10:38:08.338Z,101259.81
2018-12-18T10:39:10.807Z,101261.67
2018-12-18T10:40:13.277Z,101256.39
2018-12-18T10:41:15.746Z,101258.01
2018-12-18T10:42:18.250Z,101257.11
2018-12-18T10:43:20.749Z,101251.58
2018-12-18T10:44:23.219Z,101253.70
2018-12-18T10:45:26.201Z,101250.03
2018-12-18T10:46:28.670Z,101250.52
2018-12-18T10:47:31.171Z,101247.11
2018-12-18T10:48:33.650Z,101241.01
2018-12-18T10:49:36.111Z,101242.16
2018-12-18T10:50:38.598Z,101228.14
2018-12-18T10:51:41.093Z,101228.89
2018-12-18T10:52:43.573Z,101227.27
2018-12-18T10:53:46.062Z,101224.00
2018-12-18T10:54:48.962Z,101225.95
2018-12-18T10:55:51.447Z,101229.69
2018-12-18T10:56:53.949Z,101222.53
2018-12-18T10:57:56.432Z,101224.58
2018-12-18T10:58:59.045Z,101209.32
2018-12-18T11:00:01.527Z,101213.95
2018-12-18T11:01:09.658Z,101218.09
2018-12-18T11:02:12.664Z,101215.57
2018-12-18T11:03:15.182Z,101214.19
2018-12-18T11:04:17.705Z,101203.13
2018-12-18T11:05:20.209Z,101204.56
2018-12-18T11:06:22.749Z,101200.17
2018-12-18T11:07:25.212Z,101191.95
2018-12-18T11:08:27.708Z,101192.05
2018-12-18T11:09:30.187Z,101182.44
2018-12-18T11:10:33.048Z,101193.91
2018-12-18T11:11:35.591Z,101187.56
2018-12-18T11:12:39.137Z,101182.61
2018-12-18T11:13:41.706Z,101178.28
2018-12-18T11:14:44.186Z,101181.14
2018-12-18T11:15:46.656Z,101182.38
2018-12-18T11:16:49.126Z,101183.05
2018-12-18T11:17:51.610Z,101181.20
2018-12-18T11:18:54.092Z,101176.81
2018-12-18T11:19:56.566Z,101167.86
2018-12-18T11:20:59.056Z,101165.00
2018-12-18T11:22:01.540Z,101156.13
2018-12-18T11:23:04.024Z,101160.61
2018-12-18T11:24:06.541Z,101148.17
2018-12-18T11:25:09.019Z,101153.61
2018-12-18T11:26:11.495Z,101155.97
2018-12-18T11:27:13.971Z,101158.31
2018-12-18T11:28:16.451Z,101161.08
2018-12-18T11:29:18.942Z,101160.16
2018-12-18T11:30:21.507Z,101154.30
2018-12-18T11:31:24.125Z,101154.63
2018-12-18T11:32:32.999Z,101146.34
2018-12-18T11:33:31.145Z,101149.11
2018-12-18T11:34:33.636Z,101138.37
2018-12-18T11:35:36.108Z,101141.72
2018-12-18T11:36:38.742Z,101140.43
2018-12-18T11:37:41.224Z,101132.47
2018-12-18T11:38:43.695Z,101132.80
2018-12-18T11:39:46.198Z,101132.87
2018-12-18T11:40:48.674Z,101131.58
2018-12-18T11:41:51.154Z,101125.01
2018-12-18T11:42:53.688Z,101123.86
2018-12-18T11:43:56.153Z,101126.53
2018-12-18T11:44:58.647Z,101123.70
2018-12-18T11:46:01.121Z,101129.61
2018-12-18T11:47:03.614Z,101124.31
2018-12-18T11:48:06.100Z,101123.07
2018-12-18T11:49:08.578Z,101117.54
2018-12-18T11:50:11.080Z,101120.30
2018-12-18T11:51:13.553Z,101111.06
2018-12-18T11:52:16.041Z,101120.07
2018-12-18T11:53:18.610Z,101113.02
2018-12-18T11:54:21.237Z,101115.31